Time;durP1;ratioP1;P1;durP2;ratioP2;P2;SDS_P1;SDS_P2;PMS_P1;PMS_P2;Temp;Humidity;BMP_temperature;BMP_pressure;BME280_temperature;BME280_humidity;BME280_pressure;Samples;Min_cycle;Max_cycle;Signal;HPM_P1;HPM_P2
2024/03/28 00:01:29;;;;;;;;;;;;;;;;;;4992945;28;20062;-74
2024/03/28 00:03:59;;;;;;;;;;;;;;;;;;5014172;28;19921;-73
2024/03/28 00:06:25;;;;;;;;;;;;;;;;;;4993205;28;19917;-73
2024/03/28 00:08:50;;;;;;;;;;;;;;;;;;5013218;28;19956;-74
2024/03/28 00:11:18;;;;;;;;;;;;;;;;;;5014880;28;20026;-73
2024/03/28 00:13:43;;;;;;;;;;;;;;;;;;4994078;28;21866;-73
2024/03/28 00:16:08;;;;;;;;;;;;;;;;;;4993142;28;20811;-72
2024/03/28 00:18:35;;;;;;;;;;;;;;;;;;5015390;28;19925;-74
2024/03/28 00:21:00;;;;;;;;;;;;;;;;;;4997139;28;19918;-74
2024/03/28 00:23:25;;;;;;;;;;;;;;;;;;4995047;28;19924;-73
2024/03/28 00:25:50;;;;;;;;;;;;;;;;;;5018033;28;19924;-74
2024/03/28 00:28:16;;;;;;;;;;;;;;;;;;5016534;28;20380;-74
2024/03/28 00:30:41;;;;;;;;;;;;;;;;;;4978900;28;19992;-73
2024/03/28 00:33:09;;;;;;;;;;;;;;;;;;5019052;28;19968;-73
2024/03/28 00:35:34;;;;;;;;;;;;;;;;;;5019321;28;20674;-74
2024/03/28 00:38:02;;;;;;;;;;;;;;;;;;5001063;28;19925;-74
2024/03/28 00:40:27;;;;;;;;;;;;;;;;;;5016359;28;19921;-72
2024/03/28 00:42:55;;;;;;;;;;;;;;;;;;4980374;28;19921;-74
2024/03/28 00:45:25;;;;;;;;;;;;;;;;;;4995969;28;20000;-74
2024/03/28 00:47:56;;;;;;;;;;;;;;;;;;4999214;28;19921;-74
2024/03/28 00:50:21;;;;;;;;;;;;;;;;;;5019260;28;20086;-73
2024/03/28 00:52:46;;;;;;;;;;;;;;;;;;5016420;28;20665;-74
2024/03/28 00:55:12;;;;;;;;;;;;;;;;;;4999230;28;19917;-74
2024/03/28 00:57:40;;;;;;;;;;;;;;;;;;4996670;28;19921;-74
2024/03/28 01:00:08;;;;;;;;;;;;;;;;;;4999384;28;19970;-72
2024/03/28 01:02:38;;;;;;;;;;;;;;;;;;5018623;28;20411;-74
2024/03/28 01:05:06;;;;;;;;;;;;;;;;;;4993464;28;19917;-74
2024/03/28 01:07:35;;;;;;;;;;;;;;;;;;5012437;28;20441;-73
2024/03/28 01:10:00;;;;;;;;;;;;;;;;;;4996009;28;19918;-74
2024/03/28 01:12:28;;;;;;;;;;;;;;;;;;4985259;28;19913;-73
2024/03/28 01:14:56;;;;;;;;;;;;;;;;;;4995072;28;20408;-73
2024/03/28 01:17:24;;;;;;;;;;;;;;;;;;4996358;28;19949;-74
2024/03/28 01:19:52;;;;;;;;;;;;;;;;;;5016331;28;19953;-73
2024/03/28 01:22:23;;;;;;;;;;;;;;;;;;5000250;28;19960;-74
2024/03/28 01:24:48;;;;;;;;;;;;;;;;;;4995880;28;19917;-74
2024/03/28 01:27:13;;;;;;;;;;;;;;;;;;4997150;28;20384;-74
2024/03/28 01:29:38;;;;;;;;;;;;;;;;;;4993605;28;20372;-74
2024/03/28 01:32:06;;;;;;;;;;;;;;;;;;5000745;28;20056;-73
2024/03/28 01:34:32;;;;;;;;;;;;;;;;;;5016831;28;19917;-73
2024/03/28 01:36:59;;;;;;;;;;;;;;;;;;5015191;28;19983;-73
2024/03/28 01:39:25;;;;;;;;;;;;;;;;;;5015914;28;20365;-73
2024/03/28 01:41:50;;;;;;;;;;;;;;;;;;4979061;28;19979;-73
2024/03/28 01:47:34;;;;;;;;;;;;;;;;;;5016426;28;19975;-73
2024/03/28 01:50:00;;;;;;;;;;;;;;;;;;4996053;28;20007;-73
2024/03/28 01:52:26;;;;;;;;;;;;;;;;;;5017933;28;19924;-74
2024/03/28 01:54:55;;;;;;;;;;;;;;;;;;5015067;28;19975;-74
2024/03/28 01:57:20;;;;;;;;;;;;;;;;;;5013744;28;20164;-73
2024/03/28 01:59:48;;;;;;;;;;;;;;;;;;4981753;28;19974;-73
2024/03/28 02:02:13;;;;;;;;;;;;;;;;;;5017893;28;20052;-73
2024/03/28 02:04:38;;;;;;;;;;;;;;;;;;5016643;28;19917;-74
2024/03/28 02:07:06;;;;;;;;;;;;;;;;;;5018229;28;20068;-74
2024/03/28 02:09:31;;;;;;;;;;;;;;;;;;4976957;28;19924;-74
2024/03/28 02:11:57;;;;;;;;;;;;;;;;;;4995087;28;20000;-74
2024/03/28 02:14:22;;;;;;;;;;;;;;;;;;4994957;28;20036;-73
2024/03/28 02:16:48;;;;;;;;;;;;;;;;;;5017047;28;20380;-73
2024/03/28 02:19:15;;;;;;;;;;;;;;;;;;5015254;28;19936;-72
2024/03/28 02:21:43;;;;;;;;;;;;;;;;;;5014357;28;19928;-75
2024/03/28 02:24:08;;;;;;;;;;;;;;;;;;4998896;28;19975;-74
2024/03/28 02:29:52;;;;;;;;;;;;;;;;;;5013401;28;19924;-74
2024/03/28 02:32:18;;;;;;;;;;;;;;;;;;4998808;28;19952;-74
2024/03/28 02:34:46;;;;;;;;;;;;;;;;;;4997299;28;19960;-73
2024/03/28 02:37:14;;;;;;;;;;;;;;;;;;4998485;28;19931;-73
2024/03/28 02:39:40;;;;;;;;;;;;;;;;;;4990820;28;19921;-73
2024/03/28 02:42:07;;;;;;;;;;;;;;;;;;5015738;28;19943;-72
2024/03/28 02:44:32;;;;;;;;;;;;;;;;;;4979605;28;19974;-74
2024/03/28 02:46:58;;;;;;;;;;;;;;;;;;4997088;28;19925;-73
2024/03/28 02:49:23;;;;;;;;;;;;;;;;;;4991608;28;20307;-72
2024/03/28 02:51:48;;;;;;;;;;;;;;;;;;5016238;28;19988;-73
2024/03/28 02:54:13;;;;;;;;;;;;;;;;;;4991477;28;20361;-73
2024/03/28 02:56:39;;;;;;;;;;;;;;;;;;4996759;28;20011;-73
2024/03/28 02:59:04;;;;;;;;;;;;;;;;;;5014763;28;20912;-73
2024/03/28 03:01:31;;;;;;;;;;;;;;;;;;4998848;28;19921;-74
2024/03/28 03:03:57;;;;;;;;;;;;;;;;;;5014071;28;19928;-73
2024/03/28 03:06:22;;;;;;;;;;;;;;;;;;5013407;28;19921;-73
2024/03/28 03:08:47;;;;;;;;;;;;;;;;;;5014319;28;19948;-74
2024/03/28 03:11:12;;;;;;;;;;;;;;;;;;5001811;28;20697;-74
2024/03/28 03:13:40;;;;;;;;;;;;;;;;;;4994332;28;19979;-73
2024/03/28 03:16:08;;;;;;;;;;;;;;;;;;5015891;28;19971;-73
2024/03/28 03:21:52;;;;;;;;;;;;;;;;;;5013718;28;19963;-74
2024/03/28 03:24:17;;;;;;;;;;;;;;;;;;4994705;28;20688;-74
2024/03/28 03:26:49;;;;;;;;;;;;;;;;;;4994218;28;19969;-75
2024/03/28 03:34:47;;;;;;;;;;;;;;;;;;5014522;28;19964;-74
2024/03/28 03:37:15;;;;;;;;;;;;;;;;;;4993497;28;19921;-74
2024/03/28 03:39:46;;;;;;;;;;;;;;;;;;4979601;28;19921;-74
2024/03/28 03:42:14;;;;;;;;;;;;;;;;;;4994617;28;19925;-74
2024/03/28 03:47:26;;;;;;;;;;;;;;;;;;5015647;28;20312;-74
2024/03/28 03:49:52;;;;;;;;;;;;;;;;;;5014475;28;19917;-74
2024/03/28 03:52:17;;;;;;;;;;;;;;;;;;4995191;28;21004;-74
2024/03/28 03:54:42;;;;;;;;;;;;;;;;;;4993537;28;19929;-75
2024/03/28 04:00:24;;;;;;;;;;;;;;;;;;5013772;28;19928;-74
2024/03/28 04:02:49;;;;;;;;;;;;;;;;;;5014247;28;19917;-75
2024/03/28 04:05:14;;;;;;;;;;;;;;;;;;5013339;28;19921;-73
2024/03/28 04:07:40;;;;;;;;;;;;;;;;;;5013138;28;20283;-73
2024/03/28 04:10:08;;;;;;;;;;;;;;;;;;4992308;28;19924;-74
2024/03/28 04:12:37;;;;;;;;;;;;;;;;;;5015934;28;19921;-74
2024/03/28 04:15:02;;;;;;;;;;;;;;;;;;5015146;28;20131;-75
2024/03/28 04:17:30;;;;;;;;;;;;;;;;;;4998892;28;19936;-74
2024/03/28 04:19:56;;;;;;;;;;;;;;;;;;5014608;28;20176;-74
2024/03/28 04:22:21;;;;;;;;;;;;;;;;;;4978612;28;20325;-75
2024/03/28 04:24:46;;;;;;;;;;;;;;;;;;5014393;28;20680;-73
2024/03/28 04:27:15;;;;;;;;;;;;;;;;;;5016283;28;19924;-74
2024/03/28 04:29:58;;;;;;;;;;;;;;;;;;4995134;28;19921;-74
2024/03/28 04:32:24;;;;;;;;;;;;;;;;;;4978440;28;19975;-74
2024/03/28 04:38:08;;;;;;;;;;;;;;;;;;4994379;28;19936;-76
2024/03/28 04:40:33;;;;;;;;;;;;;;;;;;4994595;28;19921;-74
2024/03/28 04:42:59;;;;;;;;;;;;;;;;;;4979285;28;19972;-79
2024/03/28 04:48:40;;;;;;;;;;;;;;;;;;4997141;28;19933;-75
2024/03/28 04:51:05;;;;;;;;;;;;;;;;;;4998747;28;20474;-77
2024/03/28 04:53:30;;;;;;;;;;;;;;;;;;4978908;28;20008;-74
2024/03/28 04:55:56;;;;;;;;;;;;;;;;;;4977700;28;21487;-74
2024/03/28 04:58:24;;;;;;;;;;;;;;;;;;4994415;28;19928;-74
2024/03/28 05:00:49;;;;;;;;;;;;;;;;;;4988950;28;19921;-73
2024/03/28 05:03:15;;;;;;;;;;;;;;;;;;4979109;28;19918;-73
2024/03/28 05:05:41;;;;;;;;;;;;;;;;;;4978284;28;20300;-78
2024/03/28 05:08:06;;;;;;;;;;;;;;;;;;4966818;28;19917;-73
2024/03/28 05:10:31;;;;;;;;;;;;;;;;;;4979275;28;19957;-73
2024/03/28 05:12:58;;;;;;;;;;;;;;;;;;4999495;28;19928;-73
2024/03/28 05:15:23;;;;;;;;;;;;;;;;;;4998226;28;20561;-75
2024/03/28 05:17:48;;;;;;;;;;;;;;;;;;4997833;28;19921;-73
2024/03/28 05:20:16;;;;;;;;;;;;;;;;;;4999996;28;19918;-70
2024/03/28 05:22:44;;;;;;;;;;;;;;;;;;4995200;28;19932;-74
2024/03/28 05:25:09;;;;;;;;;;;;;;;;;;4980566;28;19921;-74
2024/03/28 05:27:37;;;;;;;;;;;;;;;;;;4981480;28;19917;-74
2024/03/28 05:30:05;;;;;;;;;;;;;;;;;;4997419;28;19921;-74
2024/03/28 05:32:33;;;;;;;;;;;;;;;;;;4981193;28;19917;-74
2024/03/28 05:34:58;;;;;;;;;;;;;;;;;;4997766;28;20285;-76
2024/03/28 05:37:25;;;;;;;;;;;;;;;;;;5012616;28;19979;-75
2024/03/28 05:39:51;;;;;;;;;;;;;;;;;;4985626;28;20332;-73
2024/03/28 05:42:21;;;;;;;;;;;;;;;;;;4996536;28;20545;-75
2024/03/28 05:44:46;;;;;;;;;;;;;;;;;;5007254;28;20360;-75
2024/03/28 05:47:11;;;;;;;;;;;;;;;;;;4994982;28;19936;-75
2024/03/28 05:49:39;;;;;;;;;;;;;;;;;;5017169;28;20367;-73
2024/03/28 05:52:04;;;;;;;;;;;;;;;;;;5003566;28;19921;-74
2024/03/28 05:54:32;;;;;;;;;;;;;;;;;;5004528;28;19924;-74
2024/03/28 05:57:00;;;;;;;;;;;;;;;;;;5001396;28;19925;-74
2024/03/28 05:59:25;;;;;;;;;;;;;;;;;;4998532;28;20288;-76
2024/03/28 06:01:50;;;;;;;;;;;;;;;;;;4988171;28;19921;-74
2024/03/28 06:04:18;;;;;;;;;;;;;;;;;;4998740;28;19917;-76
2024/03/28 06:06:44;;;;;;;;;;;;;;;;;;4977359;28;19923;-74
2024/03/28 06:09:09;;;;;;;;;;;;;;;;;;4998965;28;19921;-77
2024/03/28 06:11:37;;;;;;;;;;;;;;;;;;4999229;28;19913;-75
2024/03/28 06:14:02;;;;;;;;;;;;;;;;;;5009464;28;19926;-73
2024/03/28 06:16:27;;;;;;;;;;;;;;;;;;4996227;28;19993;-75
2024/03/28 06:18:52;;;;;;;;;;;;;;;;;;5005197;28;20435;-74
2024/03/28 06:21:21;;;;;;;;;;;;;;;;;;5016723;28;19964;-74
2024/03/28 06:23:46;;;;;;;;;;;;;;;;;;5003947;28;20015;-74
2024/03/28 06:26:11;;;;;;;;;;;;;;;;;;5015218;28;20340;-74
2024/03/28 06:28:39;;;;;;;;;;;;;;;;;;5017846;28;19917;-78
2024/03/28 06:31:10;;;;;;;;;;;;;;;;;;4981156;28;20183;-75
2024/03/28 06:33:35;;;;;;;;;;;;;;;;;;5016570;28;20533;-76
2024/03/28 06:36:06;;;;;;;;;;;;;;;;;;5001396;28;20007;-78
2024/03/28 06:38:31;;;;;;;;;;;;;;;;;;5001107;28;19925;-73
2024/03/28 06:44:13;;;;;;;;;;;;;;;;;;5015282;28;20006;-77
2024/03/28 06:46:41;;;;;;;;;;;;;;;;;;5004416;28;19921;-75
2024/03/28 06:49:06;;;;;;;;;;;;;;;;;;4983137;28;20363;-75
2024/03/28 06:51:31;;;;;;;;;;;;;;;;;;5013126;28;19917;-74
2024/03/28 06:54:00;;;;;;;;;;;;;;;;;;4993611;28;19932;-75
2024/03/28 06:56:25;;;;;;;;;;;;;;;;;;5017471;28;19924;-75
2024/03/28 06:58:50;;;;;;;;;;;;;;;;;;4997466;28;20027;-74
2024/03/28 07:01:18;;;;;;;;;;;;;;;;;;4997577;28;19936;-74
2024/03/28 07:03:43;;;;;;;;;;;;;;;;;;5013145;28;19956;-76
2024/03/28 07:06:09;;;;;;;;;;;;;;;;;;5003507;28;19919;-74
2024/03/28 07:08:34;;;;;;;;;;;;;;;;;;5010116;28;20399;-80
2024/03/28 07:11:00;;;;;;;;;;;;;;;;;;5010476;28;20274;-75
2024/03/28 07:13:26;;;;;;;;;;;;;;;;;;5017356;28;19959;-77
2024/03/28 07:15:53;;;;;;;;;;;;;;;;;;5015324;28;19953;-77
2024/03/28 07:18:21;;;;;;;;;;;;;;;;;;5014664;28;19956;-77
2024/03/28 07:20:48;;;;;;;;;;;;;;;;;;4982193;28;20019;-78
2024/03/28 07:23:15;;;;;;;;;;;;;;;;;;4998258;28;19917;-73
2024/03/28 07:25:40;;;;;;;;;;;;;;;;;;4997540;28;19968;-76
2024/03/28 07:28:06;;;;;;;;;;;;;;;;;;5015505;28;20343;-74
2024/03/28 07:30:34;;;;;;;;;;;;;;;;;;5014594;28;19917;-77
2024/03/28 07:32:59;;;;;;;;;;;;;;;;;;4981382;28;19924;-75
2024/03/28 07:35:24;;;;;;;;;;;;;;;;;;4978007;28;20021;-75
2024/03/28 07:37:52;;;;;;;;;;;;;;;;;;4991988;28;19987;-73
2024/03/28 07:40:18;;;;;;;;;;;;;;;;;;4995323;28;19925;-74
2024/03/28 07:42:46;;;;;;;;;;;;;;;;;;5002587;28;19928;-75
2024/03/28 07:45:14;;;;;;;;;;;;;;;;;;4983274;28;20262;-76
2024/03/28 07:47:39;;;;;;;;;;;;;;;;;;4995108;28;19917;-78
2024/03/28 07:50:09;;;;;;;;;;;;;;;;;;5016846;28;20372;-76
2024/03/28 07:52:37;;;;;;;;;;;;;;;;;;4998201;28;20012;-72
2024/03/28 07:57:47;;;;;;;;;;;;;;;;;;5015006;28;19929;-78
2024/03/28 08:00:12;;;;;;;;;;;;;;;;;;5003123;28;20384;-75
2024/03/28 08:02:38;;;;;;;;;;;;;;;;;;4997952;28;19921;-75
2024/03/28 08:05:04;;;;;;;;;;;;;;;;;;4978593;28;19921;-80
2024/03/28 08:07:31;;;;;;;;;;;;;;;;;;5015758;28;19979;-76
2024/03/28 08:09:59;;;;;;;;;;;;;;;;;;4977987;28;19968;-77
2024/03/28 08:12:24;;;;;;;;;;;;;;;;;;5014443;28;20019;-75
2024/03/28 08:14:50;;;;;;;;;;;;;;;;;;5013901;28;19930;-74
2024/03/28 08:17:17;;;;;;;;;;;;;;;;;;4997939;28;19922;-74
2024/03/28 08:19:43;;;;;;;;;;;;;;;;;;4993129;28;20340;-75
2024/03/28 08:22:16;;;;;;;;;;;;;;;;;;5015932;28;19971;-74
2024/03/28 08:24:41;;;;;;;;;;;;;;;;;;4995873;28;19917;-73
2024/03/28 08:27:07;;;;;;;;;;;;;;;;;;4996397;28;19917;-75
2024/03/28 08:29:32;;;;;;;;;;;;;;;;;;4990289;28;20207;-72
2024/03/28 08:32:00;;;;;;;;;;;;;;;;;;4991787;28;19922;-73
2024/03/28 08:34:26;;;;;;;;;;;;;;;;;;5013354;28;20046;-74
2024/03/28 08:36:51;;;;;;;;;;;;;;;;;;4993165;28;19925;-75
2024/03/28 08:39:22;;;;;;;;;;;;;;;;;;4980100;28;19929;-74
2024/03/28 08:41:57;;;;;;;;;;;;;;;;;;4979369;28;19924;-76
2024/03/28 08:44:22;;;;;;;;;;;;;;;;;;4997604;28;19921;-75
2024/03/28 08:46:47;;;;;;;;;;;;;;;;;;5018559;28;19921;-75
2024/03/28 08:49:13;;;;;;;;;;;;;;;;;;5018355;28;19932;-77
2024/03/28 08:51:38;;;;;;;;;;;;;;;;;;5020234;28;20258;-74
2024/03/28 08:54:06;;;;;;;;;;;;;;;;;;4980798;28;20265;-76
2024/03/28 08:56:31;;;;;;;;;;;;;;;;;;4994000;28;20226;-73
2024/03/28 08:58:57;;;;;;;;;;;;;;;;;;4995160;28;19921;-72
2024/03/28 09:01:23;;;;;;;;;;;;;;;;;;4998659;28;19920;-72
2024/03/28 09:03:51;;;;;;;;;;;;;;;;;;4981463;28;19921;-73
2024/03/28 09:06:23;;;;;;;;;;;;;;;;;;4984959;28;20013;-72
2024/03/28 09:08:48;;;;;;;;;;;;;;;;;;4976680;28;19947;-72
2024/03/28 09:11:13;;;;;;;;;;;;;;;;;;4998214;28;20304;-74
2024/03/28 09:13:39;;;;;;;;;;;;;;;;;;4999000;28;19952;-71
2024/03/28 09:16:09;;;;;;;;;;;;;;;;;;4994965;28;20003;-70
2024/03/28 09:18:35;;;;;;;;;;;;;;;;;;4995601;28;20392;-73
2024/03/28 09:21:01;;;;;;;;;;;;;;;;;;4980893;28;19944;-70
2024/03/28 09:23:29;;;;;;;;;;;;;;;;;;5016712;28;19921;-72
2024/03/28 09:25:59;;;;;;;;;;;;;;;;;;4994233;28;19951;-72
2024/03/28 09:28:24;;;;;;;;;;;;;;;;;;5018061;28;19924;-72
2024/03/28 09:30:52;;;;;;;;;;;;;;;;;;5016426;28;19917;-71
2024/03/28 09:33:17;;;;;;;;;;;;;;;;;;4976059;28;19964;-70
2024/03/28 09:35:43;;;;;;;;;;;;;;;;;;4978867;28;20080;-70
2024/03/28 09:38:13;;;;;;;;;;;;;;;;;;4997895;28;19929;-70
2024/03/28 09:40:38;;;;;;;;;;;;;;;;;;5018164;28;20376;-70
2024/03/28 09:43:03;;;;;;;;;;;;;;;;;;5015273;28;19992;-70
2024/03/28 09:45:29;;;;;;;;;;;;;;;;;;5014603;28;19962;-70
2024/03/28 09:47:55;;;;;;;;;;;;;;;;;;5015551;28;19967;-71
2024/03/28 09:50:20;;;;;;;;;;;;;;;;;;4994176;28;19916;-71
2024/03/28 09:52:46;;;;;;;;;;;;;;;;;;4995971;28;19917;-70
2024/03/28 09:55:11;;;;;;;;;;;;;;;;;;4998527;28;19928;-68
2024/03/28 09:57:37;;;;;;;;;;;;;;;;;;4996346;28;19944;-69
2024/03/28 10:00:05;;;;;;;;;;;;;;;;;;4997811;28;19925;-69
2024/03/28 10:02:30;;;;;;;;;;;;;;;;;;5016562;28;19917;-70
2024/03/28 10:04:58;;;;;;;;;;;;;;;;;;4996531;28;20061;-69
2024/03/28 10:07:23;;;;;;;;;;;;;;;;;;5017146;28;19921;-71
2024/03/28 10:09:51;;;;;;;;;;;;;;;;;;4992768;28;20369;-69
2024/03/28 10:12:19;;;;;;;;;;;;;;;;;;4976651;28;20000;-70
2024/03/28 10:14:47;;;;;;;;;;;;;;;;;;4991849;28;19921;-70
2024/03/28 10:17:12;;;;;;;;;;;;;;;;;;4997907;28;19921;-72
2024/03/28 10:19:42;;;;;;;;;;;;;;;;;;4997488;28;19924;-68
2024/03/28 10:22:07;;;;;;;;;;;;;;;;;;4996735;28;19917;-70
2024/03/28 10:24:33;;;;;;;;;;;;;;;;;;4982271;28;19928;-70
2024/03/28 10:26:58;;;;;;;;;;;;;;;;;;5016290;28;19921;-71
2024/03/28 10:29:24;;;;;;;;;;;;;;;;;;5016800;28;20322;-70
2024/03/28 10:31:50;;;;;;;;;;;;;;;;;;5014919;28;19973;-70
2024/03/28 10:34:16;;;;;;;;;;;;;;;;;;4998367;28;19949;-70
2024/03/28 10:36:41;;;;;;;;;;;;;;;;;;4992335;28;20054;-70
2024/03/28 10:39:09;;;;;;;;;;;;;;;;;;5001578;28;19955;-71
2024/03/28 10:41:38;;;;;;;;;;;;;;;;;;5015981;28;19928;-70
2024/03/28 10:44:06;;;;;;;;;;;;;;;;;;4993848;28;19924;-70
2024/03/28 10:46:33;;;;;;;;;;;;;;;;;;4979341;28;20285;-71
2024/03/28 10:49:05;;;;;;;;;;;;;;;;;;4985448;28;21499;-69
2024/03/28 10:51:40;;;;;;;;;;;;;;;;;;4981249;28;19917;-69
2024/03/28 10:54:08;;;;;;;;;;;;;;;;;;4993539;28;19913;-68
2024/03/28 10:56:33;;;;;;;;;;;;;;;;;;4992814;28;19917;-68
2024/03/28 10:58:58;;;;;;;;;;;;;;;;;;5007873;28;19932;-70
2024/03/28 11:01:23;;;;;;;;;;;;;;;;;;4995913;28;19921;-69
2024/03/28 11:03:51;;;;;;;;;;;;;;;;;;5012891;28;19917;-70
2024/03/28 11:06:16;;;;;;;;;;;;;;;;;;5014653;28;19939;-70
2024/03/28 11:08:42;;;;;;;;;;;;;;;;;;4994712;28;20028;-71
2024/03/28 11:11:07;;;;;;;;;;;;;;;;;;5015524;28;19957;-70
2024/03/28 11:13:34;;;;;;;;;;;;;;;;;;5014832;28;19917;-71
2024/03/28 11:16:02;;;;;;;;;;;;;;;;;;4990203;28;19929;-69
2024/03/28 11:18:32;;;;;;;;;;;;;;;;;;4995065;28;19935;-71
2024/03/28 11:20:59;;;;;;;;;;;;;;;;;;5015298;28;20292;-67
2024/03/28 11:23:24;;;;;;;;;;;;;;;;;;5012742;28;19928;-71
2024/03/28 11:25:49;;;;;;;;;;;;;;;;;;4981164;28;20630;-70
2024/03/28 11:28:15;;;;;;;;;;;;;;;;;;5014083;28;20253;-71
2024/03/28 11:30:42;;;;;;;;;;;;;;;;;;5009344;28;19917;-71
2024/03/28 11:33:10;;;;;;;;;;;;;;;;;;5012420;28;19927;-71
2024/03/28 11:35:37;;;;;;;;;;;;;;;;;;5014158;28;19994;-71
2024/03/28 11:38:08;;;;;;;;;;;;;;;;;;5005781;28;20304;-71
2024/03/28 11:43:23;;;;;;;;;;;;;;;;;;5012961;28;19975;-69
2024/03/28 11:45:49;;;;;;;;;;;;;;;;;;5013061;28;19917;-70
2024/03/28 11:48:14;;;;;;;;;;;;;;;;;;5016504;28;19929;-69
2024/03/28 11:50:41;;;;;;;;;;;;;;;;;;4992037;28;19921;-72
2024/03/28 11:56:26;;;;;;;;;;;;;;;;;;5015502;28;19928;-70
2024/03/28 11:58:53;;;;;;;;;;;;;;;;;;4995383;28;20443;-72
2024/03/28 12:01:18;;;;;;;;;;;;;;;;;;5012694;28;20640;-74
2024/03/28 12:03:44;;;;;;;;;;;;;;;;;;5013359;28;20407;-72
2024/03/28 12:06:09;;;;;;;;;;;;;;;;;;5013176;28;19913;-75
2024/03/28 12:08:44;;;;;;;;;;;;;;;;;;4997304;28;19917;-71
2024/03/28 12:11:12;;;;;;;;;;;;;;;;;;4993655;28;19921;-70
2024/03/28 12:13:37;;;;;;;;;;;;;;;;;;5014955;28;20225;-73
2024/03/28 12:16:08;;;;;;;;;;;;;;;;;;5010965;28;19928;-70
2024/03/28 12:18:33;;;;;;;;;;;;;;;;;;5013406;28;19976;-70
2024/03/28 12:21:01;;;;;;;;;;;;;;;;;;4993167;28;19917;-68
2024/03/28 12:23:26;;;;;;;;;;;;;;;;;;4996270;28;20292;-71
2024/03/28 12:25:52;;;;;;;;;;;;;;;;;;4995732;28;19917;-69
2024/03/28 12:28:20;;;;;;;;;;;;;;;;;;4993095;28;19925;-70
2024/03/28 12:30:45;;;;;;;;;;;;;;;;;;4978878;28;20082;-71
2024/03/28 12:33:10;;;;;;;;;;;;;;;;;;5014746;28;19925;-69
2024/03/28 12:35:38;;;;;;;;;;;;;;;;;;4991770;28;20562;-71
2024/03/28 12:38:12;;;;;;;;;;;;;;;;;;4995446;28;20023;-70
2024/03/28 12:40:38;;;;;;;;;;;;;;;;;;4989281;28;20671;-71
2024/03/28 12:43:03;;;;;;;;;;;;;;;;;;4990588;28;19921;-75
2024/03/28 12:45:31;;;;;;;;;;;;;;;;;;5013379;28;19921;-70
2024/03/28 12:48:01;;;;;;;;;;;;;;;;;;5012713;28;20003;-70
2024/03/28 12:50:26;;;;;;;;;;;;;;;;;;4994044;28;19917;-70
2024/03/28 12:52:52;;;;;;;;;;;;;;;;;;4992724;28;19921;-70
2024/03/28 12:55:17;;;;;;;;;;;;;;;;;;4996115;28;19920;-71
2024/03/28 12:57:42;;;;;;;;;;;;;;;;;;5013412;28;19929;-70
2024/03/28 13:00:08;;;;;;;;;;;;;;;;;;5010461;28;20400;-71
2024/03/28 13:02:33;;;;;;;;;;;;;;;;;;4992637;28;19918;-70
2024/03/28 13:04:58;;;;;;;;;;;;;;;;;;4995186;28;19941;-70
2024/03/28 13:07:27;;;;;;;;;;;;;;;;;;4977703;28;19917;-69
2024/03/28 13:09:54;;;;;;;;;;;;;;;;;;5013567;28;19920;-71
2024/03/28 13:12:22;;;;;;;;;;;;;;;;;;4994813;28;20452;-72
2024/03/28 13:14:50;;;;;;;;;;;;;;;;;;5001029;28;20008;-73
2024/03/28 13:17:18;;;;;;;;;;;;;;;;;;4993462;28;20485;-72
2024/03/28 13:19:46;;;;;;;;;;;;;;;;;;5013814;28;20384;-72
2024/03/28 13:22:14;;;;;;;;;;;;;;;;;;5014247;28;19960;-73
2024/03/28 13:27:55;;;;;;;;;;;;;;;;;;5017573;28;19927;-72
2024/03/28 13:30:21;;;;;;;;;;;;;;;;;;4993469;28;20292;-73
2024/03/28 13:32:48;;;;;;;;;;;;;;;;;;4996427;28;19913;-72
2024/03/28 13:35:19;;;;;;;;;;;;;;;;;;5016734;28;20271;-72
2024/03/28 13:37:49;;;;;;;;;;;;;;;;;;4998736;28;20387;-71
2024/03/28 13:40:16;;;;;;;;;;;;;;;;;;4994250;28;22400;-71
2024/03/28 13:42:42;;;;;;;;;;;;;;;;;;4997618;28;20015;-72
2024/03/28 13:48:00;;;;;;;;;;;;;;;;;;5014888;28;19968;-71
2024/03/28 13:50:26;;;;;;;;;;;;;;;;;;5011156;28;19952;-71
2024/03/28 13:52:53;;;;;;;;;;;;;;;;;;4997182;28;19962;-72
2024/03/28 13:55:19;;;;;;;;;;;;;;;;;;5015795;28;19955;-71
2024/03/28 13:57:47;;;;;;;;;;;;;;;;;;5016844;28;20026;-71
2024/03/28 14:00:15;;;;;;;;;;;;;;;;;;4993938;28;19924;-72
2024/03/28 14:02:43;;;;;;;;;;;;;;;;;;5014797;28;19921;-72
2024/03/28 14:05:09;;;;;;;;;;;;;;;;;;4997809;28;19928;-72
2024/03/28 14:07:37;;;;;;;;;;;;;;;;;;5015049;28;19917;-72
2024/03/28 14:10:04;;;;;;;;;;;;;;;;;;4999011;28;20284;-71
2024/03/28 14:12:33;;;;;;;;;;;;;;;;;;4998493;28;19917;-73
2024/03/28 14:15:00;;;;;;;;;;;;;;;;;;5014500;28;19920;-72
2024/03/28 14:17:25;;;;;;;;;;;;;;;;;;5016415;28;20281;-73
2024/03/28 14:19:54;;;;;;;;;;;;;;;;;;4994150;28;19936;-72
2024/03/28 14:22:19;;;;;;;;;;;;;;;;;;5016865;28;20368;-71
2024/03/28 14:24:44;;;;;;;;;;;;;;;;;;4998601;28;20272;-73
2024/03/28 14:27:09;;;;;;;;;;;;;;;;;;4978138;28;19917;-72
2024/03/28 14:29:39;;;;;;;;;;;;;;;;;;4978467;28;19940;-73
2024/03/28 14:32:05;;;;;;;;;;;;;;;;;;5015730;28;19921;-74
2024/03/28 14:34:35;;;;;;;;;;;;;;;;;;4995146;28;20012;-74
2024/03/28 14:37:00;;;;;;;;;;;;;;;;;;5015376;28;20617;-72
2024/03/28 14:39:28;;;;;;;;;;;;;;;;;;4995109;28;19929;-72
2024/03/28 14:45:22;;;;;;;;;;;;;;;;;;5013852;28;20392;-72
2024/03/28 14:47:47;;;;;;;;;;;;;;;;;;5016486;28;20007;-73
2024/03/28 14:50:12;;;;;;;;;;;;;;;;;;4993456;28;19921;-75
2024/03/28 14:52:38;;;;;;;;;;;;;;;;;;4978795;28;19979;-72
2024/03/28 14:55:03;;;;;;;;;;;;;;;;;;4993462;28;19917;-70
2024/03/28 14:57:28;;;;;;;;;;;;;;;;;;4997825;28;19917;-70
2024/03/28 14:59:56;;;;;;;;;;;;;;;;;;4995443;28;19975;-70
2024/03/28 15:02:21;;;;;;;;;;;;;;;;;;4991764;28;20267;-70
2024/03/28 15:04:49;;;;;;;;;;;;;;;;;;4979152;28;20108;-69
2024/03/28 15:07:16;;;;;;;;;;;;;;;;;;4994308;28;19921;-70
2024/03/28 15:09:41;;;;;;;;;;;;;;;;;;5015188;28;19967;-68
2024/03/28 15:12:07;;;;;;;;;;;;;;;;;;5012700;28;20040;-69
2024/03/28 15:14:32;;;;;;;;;;;;;;;;;;4992635;28;19921;-69
2024/03/28 15:17:00;;;;;;;;;;;;;;;;;;4994026;28;20152;-69
2024/03/28 15:19:28;;;;;;;;;;;;;;;;;;4995124;28;20474;-69
2024/03/28 15:21:56;;;;;;;;;;;;;;;;;;4993611;28;19921;-73
2024/03/28 15:24:24;;;;;;;;;;;;;;;;;;4996674;28;19917;-69
2024/03/28 15:26:54;;;;;;;;;;;;;;;;;;4995280;28;19924;-69
2024/03/28 15:29:20;;;;;;;;;;;;;;;;;;4999345;28;20736;-72
2024/03/28 15:31:48;;;;;;;;;;;;;;;;;;4976070;28;20044;-68
2024/03/28 15:34:13;;;;;;;;;;;;;;;;;;5014156;28;19927;-76
2024/03/28 15:36:38;;;;;;;;;;;;;;;;;;5014542;28;19928;-70
2024/03/28 15:39:07;;;;;;;;;;;;;;;;;;5007682;28;20002;-70
2024/03/28 15:41:32;;;;;;;;;;;;;;;;;;4992243;28;20012;-70
2024/03/28 15:43:57;;;;;;;;;;;;;;;;;;4995537;28;19921;-70
2024/03/28 15:46:23;;;;;;;;;;;;;;;;;;4990951;28;19972;-70
2024/03/28 15:48:48;;;;;;;;;;;;;;;;;;4997445;28;19966;-70
2024/03/28 15:51:13;;;;;;;;;;;;;;;;;;5015348;28;20373;-69
2024/03/28 15:53:42;;;;;;;;;;;;;;;;;;5012966;28;20400;-68
2024/03/28 15:56:07;;;;;;;;;;;;;;;;;;4995222;28;20177;-70
2024/03/28 15:58:32;;;;;;;;;;;;;;;;;;4994137;28;19925;-73
2024/03/28 16:00:58;;;;;;;;;;;;;;;;;;4994745;28;19917;-70
2024/03/28 16:03:23;;;;;;;;;;;;;;;;;;4993452;28;20047;-73
2024/03/28 16:05:48;;;;;;;;;;;;;;;;;;4992033;28;19921;-72
2024/03/28 16:08:16;;;;;;;;;;;;;;;;;;5015293;28;19922;-70
2024/03/28 16:10:44;;;;;;;;;;;;;;;;;;5014528;28;20380;-72
2024/03/28 16:13:11;;;;;;;;;;;;;;;;;;4979104;28;20020;-72
2024/03/28 16:15:37;;;;;;;;;;;;;;;;;;5011458;28;19970;-73
2024/03/28 16:18:04;;;;;;;;;;;;;;;;;;4994628;28;19921;-73
2024/03/28 16:20:30;;;;;;;;;;;;;;;;;;5014646;28;20573;-69
2024/03/28 16:22:57;;;;;;;;;;;;;;;;;;4992115;28;20282;-71
2024/03/28 16:25:23;;;;;;;;;;;;;;;;;;5013385;28;19925;-69
2024/03/28 16:27:53;;;;;;;;;;;;;;;;;;4979974;28;19987;-71
2024/03/28 16:30:19;;;;;;;;;;;;;;;;;;4991329;28;19921;-70
2024/03/28 16:32:44;;;;;;;;;;;;;;;;;;4979730;28;20863;-71
2024/03/28 16:35:09;;;;;;;;;;;;;;;;;;5012862;28;19987;-72
2024/03/28 16:37:37;;;;;;;;;;;;;;;;;;4990025;28;19924;-70
2024/03/28 16:40:05;;;;;;;;;;;;;;;;;;4993151;28;19917;-80
2024/03/28 16:42:31;;;;;;;;;;;;;;;;;;5013880;28;20605;-72
2024/03/28 16:44:56;;;;;;;;;;;;;;;;;;4990727;28;19988;-72
2024/03/28 16:47:26;;;;;;;;;;;;;;;;;;4995579;28;19917;-72
2024/03/28 16:49:54;;;;;;;;;;;;;;;;;;4995596;28;19940;-72
2024/03/28 16:52:19;;;;;;;;;;;;;;;;;;5015235;28;20452;-70
2024/03/28 16:54:44;;;;;;;;;;;;;;;;;;4991231;28;20362;-70
2024/03/28 16:57:11;;;;;;;;;;;;;;;;;;5012608;28;20057;-70
2024/03/28 16:59:39;;;;;;;;;;;;;;;;;;5012590;28;19925;-70
2024/03/28 17:02:07;;;;;;;;;;;;;;;;;;5003474;28;19917;-75
2024/03/28 17:04:32;;;;;;;;;;;;;;;;;;4998397;28;20011;-69
2024/03/28 17:06:57;;;;;;;;;;;;;;;;;;5016685;28;20826;-70
2024/03/28 17:09:23;;;;;;;;;;;;;;;;;;4993214;28;20293;-71
2024/03/28 17:11:48;;;;;;;;;;;;;;;;;;5018301;28;19921;-71
2024/03/28 17:14:13;;;;;;;;;;;;;;;;;;4977740;28;20039;-70
2024/03/28 17:16:38;;;;;;;;;;;;;;;;;;5016553;28;20411;-69
2024/03/28 17:19:04;;;;;;;;;;;;;;;;;;4998320;28;19936;-70
2024/03/28 17:21:31;;;;;;;;;;;;;;;;;;4981555;28;20016;-70
2024/03/28 17:23:59;;;;;;;;;;;;;;;;;;5016516;28;20427;-70
2024/03/28 17:26:25;;;;;;;;;;;;;;;;;;4999988;28;20387;-70
2024/03/28 17:28:53;;;;;;;;;;;;;;;;;;4994916;28;19925;-71
2024/03/28 17:31:18;;;;;;;;;;;;;;;;;;4993808;28;19968;-71